Nashville, TN (37229)

8:01 AM CDT on July 25, 2016 (GMT -0500)
Maplecrest Donelson , TN | | Change Station

Elev 525 ft 36.18 °N, 86.69 °W | Updated 3 seconds ago

Mostly Cloudy
Mostly Cloudy
82.0 °F
Feels Like 89 °F
N
0.0
Wind Variable Wind from South
Gusts 0.0 mph

Today
High -- | Low -- °F
--% Chance of Precip.
Yesterday
High -- | Low -- °F
Precip. -- in
Pressure 30.04 in
Visibility 10.0 miles
Clouds Scattered Clouds 20000 ft
Mostly Cloudy 25000 ft
Heat Index 89 °F
Dew Point 75 °F
Humidity 79%
Rainfall 0.00 in
Snow Depth Not available.
5:48 AM 7:57 PM
Waning Gibbous, 66% visible
METAR KBNA 251253Z 23003KT 10SM SCT200 BKN250 29/23 A3006 RMK AO2 SLP170 T02890228 $
Pressure 30.04 in
Visibility 10.0 miles
Clouds Scattered Clouds 20000 ft
Mostly Cloudy 25000 ft
Heat Index 89 °F
Dew Point 75 °F
Humidity 79%
Rainfall 0.00 in
Snow Depth Not available.
5:48 AM 7:57 PM
Waning Gibbous, 66% visible
METAR KBNA 251253Z 23003KT 10SM SCT200 BKN250 29/23 A3006 RMK AO2 SLP170 T02890228 $

10-Day Weather Forecast

Almanac

Astronomy

Jul. 25, 2016 Rise Set
Actual Time
Civil Twilight
Nautical Twilight
Astronomical Twilight
Moon
Length of Visible Light
Length of Day
Tomorrow will be .
, % of the Moon is Illuminated

Today's Extremes

State Highs State Lows

Community

WunderPhotos

Upload Photos

1,927,297 photos uploaded!

WunderBlog® & News

Nearby

Air Quality

  Air Quality AQ Index Pollutant
Not available.

Snow Depth

Station Depth Elevation

Earthquake Activity

City Distance Mag. Time & Date
Minimum magnitude displayed is 2.5.

Coastal Water Temperatures

Place Temperature

Stations

Nearby Weather Stations

Station Location Temp. Windchill Dew Point Humidity Wind Precip. Elev Updated Type
                   

Watches & Warnings

There are currently no watches in effect.